Time;durP1;ratioP1;P1;durP2;ratioP2;P2;SDS_P1;SDS_P2;PMS_P1;PMS_P2;Temp;Humidity;BMP_temperature;BMP_pressure;BME280_temperature;BME280_humidity;BME280_pressure;Samples;Min_cycle;Max_cycle;Signal;HPM_P1;HPM_P2
2021/12/05 00:22:16;;;;;;;48.07;32.13;;;;;;;;;;4976131;28;20552;-78
2021/12/05 00:24:44;;;;;;;41.00;28.70;;;;;;;;;;4978921;28;20475;-78
2021/12/05 00:27:26;;;;;;;49.53;33.20;;;;;;;;;;4982525;28;20511;-78
2021/12/05 01:12:17;;;;;;;51.87;35.50;;;;;;;;;;4987599;28;20517;-79
2021/12/05 01:17:25;;;;;;;48.67;33.67;;;;;;;;;;4984154;28;20428;-79
2021/12/05 01:19:51;;;;;;;30.77;22.70;;;;;;;;;;4986510;28;20512;-79
2021/12/05 01:22:20;;;;;;;32.83;22.77;;;;;;;;;;5000345;28;20437;-79
2021/12/05 01:25:19;;;;;;;35.67;24.47;;;;;;;;;;4984167;28;20439;-79
2021/12/05 01:27:56;;;;;;;28.23;21.10;;;;;;;;;;4997137;28;20523;-79
2021/12/05 01:31:12;;;;;;;29.80;21.17;;;;;;;;;;5001593;28;20482;-80
2021/12/05 01:33:31;;;;;;;32.10;22.07;;;;;;;;;;4975760;28;21196;-79
2021/12/05 01:49:46;;;;;;;30.07;20.63;;;;;;;;;;4985431;28;20425;-80
2021/12/05 02:33:13;;;;;;;58.60;38.73;;;;;;;;;;4981318;28;20471;-80
2021/12/05 02:38:46;;;;;;;63.67;43.23;;;;;;;;;;4981966;28;20428;-78
2021/12/05 02:43:40;;;;;;;61.40;40.63;;;;;;;;;;4977261;28;20424;-78
2021/12/05 02:46:07;;;;;;;61.50;40.50;;;;;;;;;;4978957;28;20427;-79
2021/12/05 02:48:36;;;;;;;64.27;41.27;;;;;;;;;;4980466;28;20420;-78
2021/12/05 02:51:05;;;;;;;60.33;40.60;;;;;;;;;;4978751;28;20547;-78
2021/12/05 02:53:40;;;;;;;64.50;41.70;;;;;;;;;;5010600;28;20617;-78
2021/12/05 02:56:08;;;;;;;61.57;41.43;;;;;;;;;;4976807;28;20433;-78
2021/12/05 03:01:14;;;;;;;61.93;40.33;;;;;;;;;;4982907;28;20419;-78
2021/12/05 03:03:41;;;;;;;64.33;41.93;;;;;;;;;;4983756;28;20404;-78
2021/12/05 03:06:20;;;;;;;57.23;38.63;;;;;;;;;;4976909;28;20415;-80
2021/12/05 03:08:47;;;;;;;53.17;36.93;;;;;;;;;;4957894;28;20530;-78
2021/12/05 03:11:14;;;;;;;65.37;42.47;;;;;;;;;;4995183;28;21407;-80
2021/12/05 03:13:40;;;;;;;65.73;44.97;;;;;;;;;;4979252;28;20423;-78
2021/12/05 03:16:07;;;;;;;66.63;43.77;;;;;;;;;;4981242;28;21147;-78
2021/12/05 03:18:33;;;;;;;62.00;41.23;;;;;;;;;;4993311;28;21726;-78
2021/12/05 03:21:01;;;;;;;67.50;43.03;;;;;;;;;;4979503;28;20424;-78
2021/12/05 03:23:27;;;;;;;65.87;43.03;;;;;;;;;;4995405;28;20564;-78
2021/12/05 03:25:53;;;;;;;66.83;45.17;;;;;;;;;;4976668;28;20416;-78
2021/12/05 03:28:19;;;;;;;63.60;44.03;;;;;;;;;;4993208;28;21505;-78
2021/12/05 03:30:45;;;;;;;72.07;46.87;;;;;;;;;;4979072;28;21141;-78
2021/12/05 03:33:12;;;;;;;65.30;42.57;;;;;;;;;;4993161;28;20420;-78
2021/12/05 03:35:38;;;;;;;71.00;48.10;;;;;;;;;;4993779;28;20413;-78
2021/12/05 03:38:04;;;;;;;71.97;46.97;;;;;;;;;;4974856;28;21367;-78
2021/12/05 03:40:31;;;;;;;81.47;52.73;;;;;;;;;;4980984;28;21301;-77
2021/12/05 03:42:58;;;;;;;65.27;44.83;;;;;;;;;;4979438;28;21407;-79
2021/12/05 03:45:27;;;;;;;65.70;45.37;;;;;;;;;;4994744;28;21325;-78
2021/12/05 03:47:53;;;;;;;70.93;47.20;;;;;;;;;;4995051;28;20444;-78
2021/12/05 03:50:20;;;;;;;61.97;43.13;;;;;;;;;;4991933;28;21282;-78
2021/12/05 03:52:46;;;;;;;75.00;48.30;;;;;;;;;;4980432;28;20463;-78
2021/12/05 03:55:13;;;;;;;58.73;40.63;;;;;;;;;;4980986;28;20429;-79
2021/12/05 03:57:39;;;;;;;59.50;40.43;;;;;;;;;;4979885;28;20436;-78
2021/12/05 04:00:07;;;;;;;57.37;41.87;;;;;;;;;;4978989;28;20992;-79
2021/12/05 04:02:34;;;;;;;60.07;41.60;;;;;;;;;;4992158;28;21356;-78
2021/12/05 04:05:00;;;;;;;68.23;44.70;;;;;;;;;;4981376;28;20423;-78
2021/12/05 04:07:26;;;;;;;55.93;38.80;;;;;;;;;;4977021;28;21002;-78
2021/12/05 04:09:52;;;;;;;52.87;38.20;;;;;;;;;;4975228;28;20448;-78
2021/12/05 04:12:18;;;;;;;57.77;39.27;;;;;;;;;;4976763;28;20455;-78
2021/12/05 04:14:46;;;;;;;52.00;36.57;;;;;;;;;;4975805;28;20425;-78
2021/12/05 04:17:13;;;;;;;57.10;38.00;;;;;;;;;;4978189;28;20439;-78
2021/12/05 04:19:39;;;;;;;55.27;36.50;;;;;;;;;;4993352;28;20420;-79
2021/12/05 04:22:06;;;;;;;53.60;36.63;;;;;;;;;;4994660;28;20421;-78
2021/12/05 04:24:32;;;;;;;50.43;34.83;;;;;;;;;;4980739;28;20424;-78
2021/12/05 04:26:59;;;;;;;51.17;34.67;;;;;;;;;;5011761;28;20438;-78
2021/12/05 04:29:25;;;;;;;51.30;34.40;;;;;;;;;;4995935;28;21501;-78
2021/12/05 04:31:51;;;;;;;45.70;31.50;;;;;;;;;;4992103;28;20453;-78
2021/12/05 04:34:17;;;;;;;49.87;33.90;;;;;;;;;;4977518;28;20435;-79
2021/12/05 04:36:44;;;;;;;47.07;32.10;;;;;;;;;;4980656;28;20779;-79
2021/12/05 04:39:10;;;;;;;39.27;27.23;;;;;;;;;;4978623;28;20520;-78
2021/12/05 04:41:39;;;;;;;39.50;27.90;;;;;;;;;;4978586;28;20421;-79
2021/12/05 04:44:06;;;;;;;42.53;29.70;;;;;;;;;;4978760;28;20421;-79
2021/12/05 04:46:32;;;;;;;42.33;29.17;;;;;;;;;;4972886;28;20452;-78
2021/12/05 04:48:59;;;;;;;39.23;26.50;;;;;;;;;;4981195;28;20411;-79
2021/12/05 04:51:30;;;;;;;42.53;29.57;;;;;;;;;;4980901;28;20553;-78
2021/12/05 04:53:57;;;;;;;44.07;29.40;;;;;;;;;;5011031;28;20502;-78
2021/12/05 04:56:23;;;;;;;42.17;28.73;;;;;;;;;;4978788;28;21267;-78
2021/12/05 04:58:49;;;;;;;48.53;31.87;;;;;;;;;;4978044;28;20512;-78
2021/12/05 05:01:15;;;;;;;45.67;30.57;;;;;;;;;;4969526;28;20420;-79
2021/12/05 05:03:41;;;;;;;49.97;32.30;;;;;;;;;;4997660;28;20431;-79
2021/12/05 05:06:13;;;;;;;54.20;35.83;;;;;;;;;;4980530;28;20949;-78
2021/12/05 05:08:39;;;;;;;52.53;34.50;;;;;;;;;;4995041;28;20417;-80
2021/12/05 05:11:08;;;;;;;54.10;35.60;;;;;;;;;;4998506;28;20474;-80
2021/12/05 05:13:35;;;;;;;44.07;29.80;;;;;;;;;;4962432;28;20416;-80
2021/12/05 05:16:04;;;;;;;43.20;29.47;;;;;;;;;;4982520;28;21448;-80
2021/12/05 05:18:40;;;;;;;53.93;34.37;;;;;;;;;;4984306;28;20425;-80
2021/12/05 05:21:56;;;;;;;53.73;33.27;;;;;;;;;;4995022;28;20420;-80
2021/12/05 05:27:06;;;;;;;41.03;26.83;;;;;;;;;;4983750;28;20491;-80
2021/12/05 05:41:16;;;;;;;56.23;34.23;;;;;;;;;;4979086;28;20412;-79
2021/12/05 05:43:42;;;;;;;44.50;28.67;;;;;;;;;;4983162;28;20494;-79
2021/12/05 05:46:17;;;;;;;43.90;28.20;;;;;;;;;;4999236;28;20424;-79
2021/12/05 05:51:10;;;;;;;59.43;37.07;;;;;;;;;;4978249;28;20456;-78
2021/12/05 05:53:37;;;;;;;50.90;32.23;;;;;;;;;;5008227;28;20445;-78
2021/12/05 05:56:04;;;;;;;56.60;37.30;;;;;;;;;;4980880;28;20432;-78
2021/12/05 05:58:48;;;;;;;69.37;42.50;;;;;;;;;;4992254;28;20429;-78
2021/12/05 06:01:39;;;;;;;71.50;43.53;;;;;;;;;;4991359;28;20831;-78
2021/12/05 06:04:05;;;;;;;61.20;40.57;;;;;;;;;;4977351;28;21188;-78
2021/12/05 06:06:32;;;;;;;80.87;47.47;;;;;;;;;;4994020;28;20418;-78
2021/12/05 06:08:59;;;;;;;82.17;48.10;;;;;;;;;;4979389;28;20416;-78
2021/12/05 06:11:25;;;;;;;89.23;50.20;;;;;;;;;;4976606;28;20483;-78
2021/12/05 06:13:52;;;;;;;64.33;41.37;;;;;;;;;;4989722;28;20532;-78
2021/12/05 06:16:18;;;;;;;60.80;38.30;;;;;;;;;;4994088;28;21331;-78
2021/12/05 06:18:45;;;;;;;68.77;41.63;;;;;;;;;;4973907;28;20426;-78
2021/12/05 06:21:11;;;;;;;61.67;39.80;;;;;;;;;;4992576;28;20431;-78
2021/12/05 06:23:38;;;;;;;75.40;45.27;;;;;;;;;;4977861;28;20416;-78
2021/12/05 06:26:05;;;;;;;71.43;43.03;;;;;;;;;;4973861;28;20439;-78
2021/12/05 06:28:34;;;;;;;71.33;44.23;;;;;;;;;;4990948;28;20420;-78
2021/12/05 06:41:59;;;;;;;65.07;39.53;;;;;;;;;;4982398;28;20435;-78
2021/12/05 06:47:12;;;;;;;55.13;35.40;;;;;;;;;;4976948;28;20490;-78
2021/12/05 06:49:40;;;;;;;69.80;41.60;;;;;;;;;;4990170;28;20413;-78
2021/12/05 06:52:07;;;;;;;72.10;43.00;;;;;;;;;;4980561;28;21289;-78
2021/12/05 06:54:33;;;;;;;53.13;34.10;;;;;;;;;;4993356;28;20410;-78
2021/12/05 06:56:59;;;;;;;62.77;39.23;;;;;;;;;;4976027;28;20438;-78
2021/12/05 06:59:25;;;;;;;64.20;40.23;;;;;;;;;;4982396;28;20414;-78
2021/12/05 07:01:52;;;;;;;60.03;38.13;;;;;;;;;;4994923;28;21451;-78
2021/12/05 07:06:53;;;;;;;72.83;43.33;;;;;;;;;;4980157;28;20419;-78
2021/12/05 07:09:20;;;;;;;67.43;41.83;;;;;;;;;;4994085;28;20420;-78
2021/12/05 07:14:35;;;;;;;87.83;50.27;;;;;;;;;;4980725;28;20975;-78
2021/12/05 07:17:07;;;;;;;82.03;47.57;;;;;;;;;;4997533;28;20420;-78
2021/12/05 07:22:24;;;;;;;73.17;44.60;;;;;;;;;;4983781;28;20404;-78
2021/12/05 07:25:01;;;;;;;77.67;46.20;;;;;;;;;;4995571;28;20421;-79
2021/12/05 07:41:24;;;;;;;71.37;43.13;;;;;;;;;;4980848;28;20447;-79
2021/12/05 07:43:50;;;;;;;63.60;40.70;;;;;;;;;;4984190;28;20416;-79
2021/12/05 07:46:16;;;;;;;68.53;42.57;;;;;;;;;;4999718;28;20498;-79
2021/12/05 07:48:45;;;;;;;69.57;44.10;;;;;;;;;;4983948;28;21287;-79
2021/12/05 07:56:19;;;;;;;69.13;43.93;;;;;;;;;;4984103;28;20436;-79
2021/12/05 08:15:18;;;;;;;106.17;58.60;;;;;;;;;;4983202;28;20436;-79
2021/12/05 08:17:51;;;;;;;89.97;53.13;;;;;;;;;;4980231;28;20421;-79
2021/12/05 08:20:19;;;;;;;78.60;47.67;;;;;;;;;;4977615;28;20430;-79
2021/12/05 08:22:45;;;;;;;70.93;43.33;;;;;;;;;;4978627;28;20514;-80
2021/12/05 08:25:13;;;;;;;76.57;43.23;;;;;;;;;;4983709;28;20428;-80
2021/12/05 08:27:48;;;;;;;60.67;37.80;;;;;;;;;;4984060;28;20428;-79
2021/12/05 08:30:23;;;;;;;71.13;40.70;;;;;;;;;;4983950;28;20440;-80
2021/12/05 09:52:14;;;;;;;77.30;48.30;;;;;;;;;;4987910;28;20487;-80
2021/12/05 10:37:21;;;;;;;52.87;35.80;;;;;;;;;;4985826;28;21340;-81
2021/12/05 10:39:47;;;;;;;49.87;35.03;;;;;;;;;;5002463;28;20464;-81
2021/12/05 10:42:35;;;;;;;51.03;34.43;;;;;;;;;;5001961;28;20976;-80
2021/12/05 10:45:01;;;;;;;53.57;37.30;;;;;;;;;;5000516;28;20420;-80
2021/12/05 10:47:37;;;;;;;51.43;32.57;;;;;;;;;;4985498;28;21306;-79
2021/12/05 10:50:22;;;;;;;49.97;35.27;;;;;;;;;;4985298;28;20427;-81
2021/12/05 10:52:48;;;;;;;46.70;31.30;;;;;;;;;;5002523;28;20462;-80
2021/12/05 10:55:27;;;;;;;46.50;33.10;;;;;;;;;;5002370;28;21441;-80
2021/12/05 10:57:55;;;;;;;47.47;31.93;;;;;;;;;;4998583;28;20906;-80
2021/12/05 11:00:21;;;;;;;52.00;33.63;;;;;;;;;;4982016;28;20457;-80
2021/12/05 11:02:47;;;;;;;51.97;34.57;;;;;;;;;;4977414;28;21129;-80
2021/12/05 11:05:32;;;;;;;48.50;32.53;;;;;;;;;;5001052;28;20421;-81
2021/12/05 11:07:58;;;;;;;44.97;32.57;;;;;;;;;;4985834;28;20423;-80
2021/12/05 11:10:24;;;;;;;48.07;33.67;;;;;;;;;;4988354;28;21409;-80
2021/12/05 11:12:50;;;;;;;47.10;34.17;;;;;;;;;;5000407;28;20453;-80
2021/12/05 11:15:18;;;;;;;49.70;33.57;;;;;;;;;;4988311;28;21303;-81
2021/12/05 11:17:47;;;;;;;50.10;34.30;;;;;;;;;;4987510;28;20800;-80
2021/12/05 11:20:18;;;;;;;48.33;34.97;;;;;;;;;;4985246;28;20782;-80
2021/12/05 11:22:53;;;;;;;46.57;34.17;;;;;;;;;;5000131;28;20424;-80
2021/12/05 11:25:22;;;;;;;46.07;32.37;;;;;;;;;;5001477;28;20420;-80
2021/12/05 11:27:49;;;;;;;46.43;33.37;;;;;;;;;;4987060;28;20424;-80
2021/12/05 11:30:15;;;;;;;43.90;32.00;;;;;;;;;;4983043;28;21234;-81
2021/12/05 11:32:44;;;;;;;41.73;32.07;;;;;;;;;;4998782;28;20456;-80
2021/12/05 11:35:10;;;;;;;48.77;34.53;;;;;;;;;;4980503;28;20436;-81
2021/12/05 11:37:57;;;;;;;47.50;32.20;;;;;;;;;;5000008;28;20421;-80
2021/12/05 11:40:25;;;;;;;47.00;33.27;;;;;;;;;;5000136;28;21132;-80
2021/12/05 11:42:52;;;;;;;44.47;31.93;;;;;;;;;;4998412;28;21013;-80
2021/12/05 11:45:18;;;;;;;50.33;32.47;;;;;;;;;;4985224;28;20441;-80
2021/12/05 11:47:44;;;;;;;43.43;31.83;;;;;;;;;;4999414;28;20490;-80
2021/12/05 11:50:11;;;;;;;49.03;32.20;;;;;;;;;;4981585;28;20424;-80
2021/12/05 11:52:39;;;;;;;44.70;32.67;;;;;;;;;;4980373;28;21359;-80
2021/12/05 11:55:06;;;;;;;47.33;32.63;;;;;;;;;;5000415;28;20416;-81
2021/12/05 11:57:32;;;;;;;46.13;32.33;;;;;;;;;;4985251;28;20408;-80
2021/12/05 12:00:02;;;;;;;45.10;31.57;;;;;;;;;;4986595;28;20653;-80
2021/12/05 12:02:33;;;;;;;46.73;32.83;;;;;;;;;;4983411;28;20532;-81
2021/12/05 12:05:02;;;;;;;47.90;32.87;;;;;;;;;;4984810;28;20423;-81
2021/12/05 12:07:34;;;;;;;45.47;32.30;;;;;;;;;;4983058;28;20413;-81
2021/12/05 12:10:19;;;;;;;44.23;31.10;;;;;;;;;;4985002;28;20576;-81
2021/12/05 12:12:47;;;;;;;45.23;30.37;;;;;;;;;;4999585;28;20484;-80
2021/12/05 12:15:15;;;;;;;41.07;28.47;;;;;;;;;;4980657;28;20479;-80
2021/12/05 12:17:41;;;;;;;43.97;29.57;;;;;;;;;;4983824;28;20416;-81
2021/12/05 12:20:10;;;;;;;44.07;30.60;;;;;;;;;;4986483;28;21054;-81
2021/12/05 12:22:37;;;;;;;43.43;30.80;;;;;;;;;;4982753;28;20424;-81
2021/12/05 12:25:05;;;;;;;45.23;32.77;;;;;;;;;;4986460;28;20928;-81
2021/12/05 12:27:31;;;;;;;44.30;32.30;;;;;;;;;;4996313;28;20424;-81
2021/12/05 12:29:58;;;;;;;47.80;31.77;;;;;;;;;;4987476;28;20532;-81
2021/12/05 12:32:34;;;;;;;46.97;31.80;;;;;;;;;;5000997;28;20444;-81
2021/12/05 12:35:05;;;;;;;45.23;32.90;;;;;;;;;;4979974;28;20424;-82
2021/12/05 12:37:32;;;;;;;48.83;32.87;;;;;;;;;;4983427;28;20412;-82
2021/12/05 12:39:58;;;;;;;44.70;31.20;;;;;;;;;;4983190;28;21455;-81
2021/12/05 12:42:26;;;;;;;43.83;30.60;;;;;;;;;;4981086;28;20444;-81
2021/12/05 12:45:10;;;;;;;43.53;30.50;;;;;;;;;;4987432;28;20463;-81
2021/12/05 12:47:51;;;;;;;45.27;30.70;;;;;;;;;;4986945;28;20437;-80
2021/12/05 12:50:20;;;;;;;37.87;27.67;;;;;;;;;;4986326;28;20456;-80
2021/12/05 12:53:01;;;;;;;44.67;28.73;;;;;;;;;;5001082;28;20455;-82
2021/12/05 12:55:29;;;;;;;40.33;30.20;;;;;;;;;;4984240;28;20436;-81
2021/12/05 12:57:55;;;;;;;40.77;27.47;;;;;;;;;;4999686;28;20429;-81
2021/12/05 13:00:26;;;;;;;36.90;25.80;;;;;;;;;;4983474;28;20633;-82
2021/12/05 13:03:02;;;;;;;41.47;27.27;;;;;;;;;;4981278;28;20454;-81
2021/12/05 13:11:04;;;;;;;44.63;26.93;;;;;;;;;;4986515;28;21442;-82
2021/12/05 13:13:32;;;;;;;33.80;24.30;;;;;;;;;;5012119;28;20440;-81
2021/12/05 13:16:13;;;;;;;35.63;24.27;;;;;;;;;;4985944;28;22479;-82
2021/12/05 13:18:40;;;;;;;33.23;23.80;;;;;;;;;;4996767;28;21305;-82
2021/12/05 13:21:16;;;;;;;31.10;22.57;;;;;;;;;;4997306;28;20491;-81
2021/12/05 13:23:45;;;;;;;35.53;25.17;;;;;;;;;;5001336;28;21030;-82
2021/12/05 13:26:24;;;;;;;32.83;23.17;;;;;;;;;;4984855;28;20436;-82
2021/12/05 13:28:56;;;;;;;34.13;24.30;;;;;;;;;;4985596;28;21390;-82
2021/12/05 13:31:28;;;;;;;36.60;25.30;;;;;;;;;;4983252;28;20438;-81
2021/12/05 13:34:13;;;;;;;30.37;21.87;;;;;;;;;;5010367;28;20464;-81
2021/12/05 13:36:39;;;;;;;29.63;20.83;;;;;;;;;;4982372;28;20543;-81
2021/12/05 13:39:25;;;;;;;30.97;21.47;;;;;;;;;;4997234;28;20460;-81
2021/12/05 13:42:00;;;;;;;29.87;20.97;;;;;;;;;;4995647;28;20436;-81
2021/12/05 13:44:46;;;;;;;32.07;22.27;;;;;;;;;;4983560;28;20433;-81
2021/12/05 13:47:17;;;;;;;28.87;20.40;;;;;;;;;;4987425;28;20471;-81
2021/12/05 13:49:44;;;;;;;29.97;20.77;;;;;;;;;;4985737;28;21259;-81
2021/12/05 13:52:30;;;;;;;30.03;21.10;;;;;;;;;;5003024;28;20531;-81
2021/12/05 13:55:15;;;;;;;32.07;21.40;;;;;;;;;;5019188;28;20427;-81
2021/12/05 13:58:01;;;;;;;34.17;22.83;;;;;;;;;;4987619;28;20534;-81
2021/12/05 14:00:54;;;;;;;34.60;23.00;;;;;;;;;;4984159;28;20466;-81
2021/12/05 14:03:39;;;;;;;34.30;23.97;;;;;;;;;;4977734;28;20439;-81
2021/12/05 14:06:25;;;;;;;36.97;25.40;;;;;;;;;;5014855;28;20527;-81
2021/12/05 14:08:52;;;;;;;41.87;25.53;;;;;;;;;;4959426;28;20451;-81
2021/12/05 14:11:19;;;;;;;37.47;25.97;;;;;;;;;;4985975;28;20419;-81
2021/12/05 14:13:46;;;;;;;38.50;26.20;;;;;;;;;;4984609;28;21254;-80
2021/12/05 14:16:12;;;;;;;35.77;26.00;;;;;;;;;;4999337;28;20436;-81
2021/12/05 14:18:40;;;;;;;38.40;24.80;;;;;;;;;;4994507;28;20435;-80
2021/12/05 14:21:17;;;;;;;34.13;24.30;;;;;;;;;;4978318;28;20428;-79
2021/12/05 14:23:50;;;;;;;34.43;23.67;;;;;;;;;;4985646;28;20515;-80
2021/12/05 14:26:17;;;;;;;33.33;23.57;;;;;;;;;;4984536;28;20558;-80
2021/12/05 14:28:44;;;;;;;36.77;24.00;;;;;;;;;;4986465;28;20431;-80
2021/12/05 14:31:10;;;;;;;36.20;24.73;;;;;;;;;;4985231;28;20437;-80
2021/12/05 14:33:52;;;;;;;34.87;24.90;;;;;;;;;;5002304;28;21292;-80
2021/12/05 14:36:23;;;;;;;37.60;25.00;;;;;;;;;;4983394;28;20424;-80
2021/12/05 14:39:05;;;;;;;35.70;23.93;;;;;;;;;;4980635;28;20409;-80
2021/12/05 14:41:32;;;;;;;37.77;25.17;;;;;;;;;;5000786;28;20425;-79
2021/12/05 14:43:58;;;;;;;35.37;24.57;;;;;;;;;;4981775;28;21296;-80
2021/12/05 14:46:24;;;;;;;36.60;25.23;;;;;;;;;;4986376;28;20429;-79
2021/12/05 14:48:57;;;;;;;39.13;25.97;;;;;;;;;;4983975;28;20539;-79
2021/12/05 14:51:34;;;;;;;40.33;25.90;;;;;;;;;;4980810;28;20498;-79
2021/12/05 14:54:00;;;;;;;53.13;32.57;;;;;;;;;;4984136;28;20455;-80
2021/12/05 14:56:27;;;;;;;48.03;31.00;;;;;;;;;;4980001;28;20508;-79
2021/12/05 14:59:01;;;;;;;51.43;31.23;;;;;;;;;;4998858;28;20420;-81
2021/12/05 15:01:28;;;;;;;43.47;29.60;;;;;;;;;;4997808;28;20420;-81
2021/12/05 15:03:54;;;;;;;51.47;32.23;;;;;;;;;;4985687;28;21098;-80
2021/12/05 15:06:20;;;;;;;42.53;29.70;;;;;;;;;;4983566;28;20427;-80
2021/12/05 15:08:47;;;;;;;44.73;29.93;;;;;;;;;;4997107;28;21128;-80
2021/12/05 15:11:13;;;;;;;44.03;30.70;;;;;;;;;;4986380;28;20435;-81
2021/12/05 15:13:39;;;;;;;45.53;30.77;;;;;;;;;;4997974;28;20456;-80
2021/12/05 15:16:05;;;;;;;44.43;29.63;;;;;;;;;;4984001;28;20424;-81
2021/12/05 15:18:34;;;;;;;45.37;29.33;;;;;;;;;;4998464;28;20432;-81
2021/12/05 15:21:01;;;;;;;51.70;32.63;;;;;;;;;;4982053;28;20434;-80
2021/12/05 15:23:28;;;;;;;46.53;29.87;;;;;;;;;;4984611;28;20414;-80
2021/12/05 15:25:54;;;;;;;58.57;34.07;;;;;;;;;;4983084;28;20420;-81
2021/12/05 15:28:22;;;;;;;51.93;31.57;;;;;;;;;;4986470;28;20471;-80
2021/12/05 15:30:49;;;;;;;53.37;32.30;;;;;;;;;;4996275;28;20655;-80
2021/12/05 15:33:17;;;;;;;49.70;33.00;;;;;;;;;;4985449;28;20517;-80
2021/12/05 15:35:44;;;;;;;58.07;35.40;;;;;;;;;;4981488;28;20425;-80
2021/12/05 15:38:23;;;;;;;52.57;33.53;;;;;;;;;;4982759;28;20472;-80
2021/12/05 15:40:50;;;;;;;50.60;33.00;;;;;;;;;;4982484;28;20422;-80
2021/12/05 15:43:18;;;;;;;51.23;32.03;;;;;;;;;;4983424;28;20467;-80
2021/12/05 15:45:45;;;;;;;47.83;32.57;;;;;;;;;;4996371;28;20436;-80
2021/12/05 15:48:12;;;;;;;47.03;30.67;;;;;;;;;;5001873;28;21581;-80
2021/12/05 15:50:40;;;;;;;47.07;30.70;;;;;;;;;;4981557;28;20428;-80
2021/12/05 15:53:10;;;;;;;47.87;30.47;;;;;;;;;;4983901;28;20448;-80
2021/12/05 15:55:46;;;;;;;51.60;31.93;;;;;;;;;;4983685;28;20424;-79
2021/12/05 15:58:20;;;;;;;46.10;31.53;;;;;;;;;;4983069;28;20507;-79
2021/12/05 16:01:00;;;;;;;48.87;32.30;;;;;;;;;;4983136;28;20416;-79
2021/12/05 16:03:31;;;;;;;49.50;32.90;;;;;;;;;;4980472;28;20507;-80
2021/12/05 16:06:01;;;;;;;52.70;34.40;;;;;;;;;;4981945;28;21379;-80
2021/12/05 16:08:28;;;;;;;77.77;52.87;;;;;;;;;;4981131;28;21294;-80
2021/12/05 16:10:58;;;;;;;66.20;44.70;;;;;;;;;;4981284;28;20495;-79
2021/12/05 16:13:32;;;;;;;60.57;41.80;;;;;;;;;;4994747;28;20447;-79
2021/12/05 16:16:16;;;;;;;55.30;37.50;;;;;;;;;;4980157;28;20493;-80
2021/12/05 16:18:43;;;;;;;59.33;39.10;;;;;;;;;;4993113;28;20429;-79
2021/12/05 16:21:22;;;;;;;67.17;42.00;;;;;;;;;;4981311;28;20456;-80
2021/12/05 16:23:50;;;;;;;58.20;39.13;;;;;;;;;;4980381;28;20434;-80
2021/12/05 16:26:20;;;;;;;62.80;39.10;;;;;;;;;;4981107;28;20427;-80
2021/12/05 16:28:50;;;;;;;53.70;35.67;;;;;;;;;;4998036;28;20432;-80
2021/12/05 16:31:22;;;;;;;59.23;36.33;;;;;;;;;;4996334;28;20484;-79
2021/12/05 16:33:49;;;;;;;54.13;34.23;;;;;;;;;;4984466;28;20622;-81
2021/12/05 16:36:15;;;;;;;55.03;35.27;;;;;;;;;;4997776;28;20432;-80
2021/12/05 16:38:53;;;;;;;52.60;34.47;;;;;;;;;;4985652;28;20428;-80
2021/12/05 16:41:21;;;;;;;54.30;36.40;;;;;;;;;;4977039;28;20439;-79
2021/12/05 16:43:53;;;;;;;55.70;35.83;;;;;;;;;;4992264;28;21202;-79
2021/12/05 16:46:25;;;;;;;60.10;36.23;;;;;;;;;;4979448;28;20443;-79
2021/12/05 16:48:52;;;;;;;56.87;37.57;;;;;;;;;;4979825;28;20757;-80
2021/12/05 16:51:27;;;;;;;55.57;36.27;;;;;;;;;;4981555;28;20432;-79
2021/12/05 16:53:59;;;;;;;57.60;36.43;;;;;;;;;;4982306;28;20529;-79
2021/12/05 16:56:41;;;;;;;55.43;37.70;;;;;;;;;;4985273;28;21388;-80
2021/12/05 16:59:08;;;;;;;66.53;40.27;;;;;;;;;;4981689;28;20432;-80
2021/12/05 17:01:34;;;;;;;61.03;39.77;;;;;;;;;;4979136;28;20413;-79
2021/12/05 17:04:01;;;;;;;63.30;40.13;;;;;;;;;;4981404;28;21036;-80
2021/12/05 17:06:28;;;;;;;67.93;41.43;;;;;;;;;;4965055;28;21082;-80
2021/12/05 17:08:55;;;;;;;58.73;38.77;;;;;;;;;;4981126;28;21070;-79
2021/12/05 17:11:22;;;;;;;66.93;41.20;;;;;;;;;;4976489;28;20425;-79
2021/12/05 17:13:53;;;;;;;67.93;40.37;;;;;;;;;;4992629;28;20452;-79
2021/12/05 17:16:22;;;;;;;62.53;39.10;;;;;;;;;;4978173;28;20423;-78
2021/12/05 17:18:56;;;;;;;60.37;38.77;;;;;;;;;;4978928;28;20900;-79
2021/12/05 17:21:24;;;;;;;60.30;38.33;;;;;;;;;;4978159;28;20440;-79
2021/12/05 17:23:56;;;;;;;62.50;37.57;;;;;;;;;;4995634;28;20429;-79
2021/12/05 17:26:23;;;;;;;58.67;37.80;;;;;;;;;;4982641;28;20436;-80
2021/12/05 17:29:19;;;;;;;63.73;38.73;;;;;;;;;;4983034;28;20459;-78
2021/12/05 17:31:47;;;;;;;60.70;38.70;;;;;;;;;;4975643;28;20437;-78
2021/12/05 17:34:24;;;;;;;60.53;37.27;;;;;;;;;;4992968;28;20429;-79
2021/12/05 17:37:01;;;;;;;62.83;39.17;;;;;;;;;;4979379;28;20697;-79
2021/12/05 17:39:34;;;;;;;65.90;38.13;;;;;;;;;;4979537;28;20431;-79
2021/12/05 17:42:04;;;;;;;61.67;40.10;;;;;;;;;;4992326;28;20424;-77
2021/12/05 17:44:30;;;;;;;63.73;39.27;;;;;;;;;;4974072;28;20432;-76
2021/12/05 17:47:00;;;;;;;73.57;43.17;;;;;;;;;;4973536;28;20455;-77
2021/12/05 17:49:28;;;;;;;69.03;42.03;;;;;;;;;;4989796;28;20432;-77
2021/12/05 17:51:57;;;;;;;78.17;46.33;;;;;;;;;;4975685;28;20463;-77
2021/12/05 17:55:03;;;;;;;64.73;40.73;;;;;;;;;;4974101;28;20432;-77
2021/12/05 17:57:21;;;;;;;66.77;41.30;;;;;;;;;;4971639;28;20424;-77
2021/12/05 18:05:00;;;;;;;70.67;43.43;;;;;;;;;;4971583;28;20600;-77
2021/12/05 18:07:26;;;;;;;71.93;44.30;;;;;;;;;;4988367;28;20428;-76
2021/12/05 18:09:52;;;;;;;74.10;44.73;;;;;;;;;;5004382;28;21477;-76
2021/12/05 18:12:32;;;;;;;69.97;42.80;;;;;;;;;;4972453;28;21389;-77
2021/12/05 18:14:59;;;;;;;71.63;42.40;;;;;;;;;;4971785;28;20412;-75
2021/12/05 18:17:25;;;;;;;75.07;45.93;;;;;;;;;;4974577;28;20551;-77
2021/12/05 18:19:52;;;;;;;77.17;44.07;;;;;;;;;;5006247;28;20429;-76
2021/12/05 18:22:20;;;;;;;79.20;46.57;;;;;;;;;;5005536;28;20436;-76
2021/12/05 18:24:47;;;;;;;80.97;46.57;;;;;;;;;;4976333;28;22084;-76
2021/12/05 18:27:14;;;;;;;85.83;49.20;;;;;;;;;;4974472;28;21204;-77
2021/12/05 18:29:40;;;;;;;74.87;46.37;;;;;;;;;;4992351;28;20538;-76
2021/12/05 18:32:09;;;;;;;86.17;50.80;;;;;;;;;;4978815;28;20467;-77
2021/12/05 18:34:35;;;;;;;78.07;47.87;;;;;;;;;;4969687;28;20467;-76
2021/12/05 18:37:03;;;;;;;84.73;49.03;;;;;;;;;;4977830;28;20439;-76
2021/12/05 18:39:31;;;;;;;89.83;51.97;;;;;;;;;;4977960;28;21035;-76
2021/12/05 18:42:03;;;;;;;83.77;48.70;;;;;;;;;;4978026;28;20938;-77
2021/12/05 18:44:31;;;;;;;85.83;50.07;;;;;;;;;;4994578;28;20429;-77
2021/12/05 18:46:58;;;;;;;81.70;49.30;;;;;;;;;;4976136;28;21240;-76
2021/12/05 18:49:25;;;;;;;79.70;50.80;;;;;;;;;;4979175;28;20494;-76
2021/12/05 18:51:52;;;;;;;90.37;54.23;;;;;;;;;;4979342;28;20428;-76
2021/12/05 18:54:18;;;;;;;96.27;56.53;;;;;;;;;;4977623;28;21310;-76
2021/12/05 18:56:45;;;;;;;101.97;57.67;;;;;;;;;;4980149;28;20889;-76
2021/12/05 18:59:12;;;;;;;97.10;55.93;;;;;;;;;;4993375;28;20492;-77
2021/12/05 19:04:34;;;;;;;97.23;57.27;;;;;;;;;;4976554;28;21826;-77
2021/12/05 19:07:08;;;;;;;94.57;56.30;;;;;;;;;;5007710;28;20443;-76
2021/12/05 19:12:19;;;;;;;96.37;57.10;;;;;;;;;;4975221;28;20444;-77
2021/12/05 19:14:47;;;;;;;95.37;58.50;;;;;;;;;;4977527;28;20420;-78
2021/12/05 19:17:22;;;;;;;93.43;57.10;;;;;;;;;;4976356;28;20421;-77
2021/12/05 19:19:50;;;;;;;97.93;57.30;;;;;;;;;;4977546;28;20404;-77
2021/12/05 19:22:19;;;;;;;83.73;50.50;;;;;;;;;;4993385;28;20539;-76
2021/12/05 19:24:49;;;;;;;85.20;50.33;;;;;;;;;;4977932;28;20436;-77
2021/12/05 19:27:16;;;;;;;89.10;52.63;;;;;;;;;;4990665;28;21327;-77
2021/12/05 19:29:42;;;;;;;84.03;48.63;;;;;;;;;;4976641;28;20523;-77
2021/12/05 19:32:09;;;;;;;96.43;55.90;;;;;;;;;;4980239;28;20448;-77
2021/12/05 19:34:36;;;;;;;81.73;52.53;;;;;;;;;;4977090;28;20432;-77
2021/12/05 19:37:04;;;;;;;88.07;53.40;;;;;;;;;;4975705;28;20452;-77
2021/12/05 19:39:30;;;;;;;86.60;53.30;;;;;;;;;;4976035;28;20616;-78
2021/12/05 19:41:57;;;;;;;90.10;53.50;;;;;;;;;;4980263;28;20447;-77
2021/12/05 19:44:25;;;;;;;89.97;55.70;;;;;;;;;;4991072;28;20520;-77
2021/12/05 19:46:52;;;;;;;103.37;63.03;;;;;;;;;;4991374;28;20551;-76
2021/12/05 19:49:19;;;;;;;110.50;69.47;;;;;;;;;;4973507;28;20420;-76
2021/12/05 19:51:45;;;;;;;136.83;89.17;;;;;;;;;;4976029;28;20483;-75
2021/12/05 19:54:11;;;;;;;122.90;77.60;;;;;;;;;;4990148;28;20431;-76
2021/12/05 19:56:42;;;;;;;124.53;79.63;;;;;;;;;;4976512;28;20436;-75
2021/12/05 19:59:08;;;;;;;133.20;87.57;;;;;;;;;;4988320;28;20436;-76
2021/12/05 20:01:35;;;;;;;134.07;87.33;;;;;;;;;;4974999;28;20428;-75
2021/12/05 20:04:01;;;;;;;169.77;110.97;;;;;;;;;;4973972;28;20436;-76
2021/12/05 20:06:27;;;;;;;152.43;98.37;;;;;;;;;;4975850;28;21092;-76
2021/12/05 20:08:53;;;;;;;141.37;91.97;;;;;;;;;;4988150;28;20413;-75
2021/12/05 20:11:19;;;;;;;130.23;82.87;;;;;;;;;;4973784;28;20421;-75
2021/12/05 20:13:46;;;;;;;164.97;101.87;;;;;;;;;;4974338;28;20440;-75